Pagrindinis puslapis
METAR-TAF:

METAR-TAF

Oro uostai :

Vilnius, Lietuva

Tarptautinis Vilniaus oro uostas

platuma: 54-38N, ilguma: 025-06E, Aukštis: 162 m

Dabartinis oras

Ataskaita buvo paskelbta 11 minutes, ne 18:50 UTC
Vėjas 5 kt iš Šiaurės Vakarų
Temperatūra 12°C
Drėgmė 50%
Slėgis 1011 hPa
Matomumas 10 km arba daugiau
nėra debesų žemiau 1500 m ir nėra kamuolinių lietaus debesų

METAR: EYVI 211850Z 32005KT CAVOK 12/02 Q1011 NOSIG

Laikas: 22:01 (19:01 UTC)

Prognozė

Ataskaita buvo paskelbta 1 valandą ir 58 minutes, ne 17:03 UTC
Prognozė galioja nuo 21 metu 18 UTC su 22 metu 18 UTC
Vėjas 14 kt iš Vakarų/Šiaurės Vakarų
Matomumas: 9000 m
Išsisklaidę debesys ne aukštis 3500 ft
Laikinai
nuo 22 metu 00 UTC su 22 metu 06 UTC
Matomumas: 1500 m
Su prošvaistėmis ne aukštis 500 ft
rūkana
Tapsmas
nuo 22 metu 06 UTC su 22 metu 07 UTC
Vėjas 14 kt iš Šiaurės/Šiaurės Vakarų su gūsio iki 24 kt
Su prošvaistėmis ne aukštis 3500 ft

TAF: EYVI 211703Z 2118/2218 29014KT 9000 SCT035 TEMPO 2200/2206 1500 BR BKN005 BECMG 2206/2207 33014G24KT BKN035

Orai ataskaitas ir orų prognozės (METAR, TAF).

turimą stotys yra geltonos ir raudonos taškus žemėlapyje.

Perkelti pele per norėdami pamatyti stoties vardą.

Tada spustelėkite, norėdami matyti oro stebėjimo ir prognozės.

Norėdami pakeisti žemėlapį: spustelėkite ant žalios mygtukų su juodo kryžiaus žemyn,; žalią mygtuką su brūkšneliu, jei norite nutolinti; arba žalių rodyklių gretimoms žemėlapius.


METAR-TAF: